sensor_id;sensor_type;location;lat;lon;timestamp;P1;durP1;ratioP1;P2;durP2;ratioP2
36827;SDS011;22766;48.042;11.192;2023-06-04T00:01:15;4.45;;;3.05;;
36827;SDS011;22766;48.042;11.192;2023-06-04T00:03:43;7.07;;;3.40;;
36827;SDS011;22766;48.042;11.192;2023-06-04T00:06:10;6.90;;;3.50;;
36827;SDS011;22766;48.042;11.192;2023-06-04T00:08:36;5.43;;;3.45;;
36827;SDS011;22766;48.042;11.192;2023-06-04T00:11:03;7.13;;;3.78;;
36827;SDS011;22766;48.042;11.192;2023-06-04T00:13:30;7.45;;;3.70;;
36827;SDS011;22766;48.042;11.192;2023-06-04T00:15:57;7.45;;;4.00;;
36827;SDS011;22766;48.042;11.192;2023-06-04T00:18:24;6.55;;;4.03;;
36827;SDS011;22766;48.042;11.192;2023-06-04T00:20:52;8.77;;;3.40;;
36827;SDS011;22766;48.042;11.192;2023-06-04T00:23:18;7.00;;;3.88;;
36827;SDS011;22766;48.042;11.192;2023-06-04T00:25:45;6.72;;;3.33;;
36827;SDS011;22766;48.042;11.192;2023-06-04T00:28:12;7.30;;;3.75;;
36827;SDS011;22766;48.042;11.192;2023-06-04T00:30:39;7.93;;;3.05;;
36827;SDS011;22766;48.042;11.192;2023-06-04T00:33:06;6.43;;;3.50;;
36827;SDS011;22766;48.042;11.192;2023-06-04T00:35:32;6.00;;;3.25;;
36827;SDS011;22766;48.042;11.192;2023-06-04T00:37:59;5.65;;;3.63;;
36827;SDS011;22766;48.042;11.192;2023-06-04T00:40:26;8.30;;;4.13;;
36827;SDS011;22766;48.042;11.192;2023-06-04T00:42:53;8.68;;;3.50;;
36827;SDS011;22766;48.042;11.192;2023-06-04T00:45:21;5.90;;;3.72;;
36827;SDS011;22766;48.042;11.192;2023-06-04T00:47:52;6.28;;;3.42;;
36827;SDS011;22766;48.042;11.192;2023-06-04T00:50:19;6.43;;;3.45;;
36827;SDS011;22766;48.042;11.192;2023-06-04T00:52:48;8.10;;;3.33;;
36827;SDS011;22766;48.042;11.192;2023-06-04T00:55:15;12.23;;;3.65;;
36827;SDS011;22766;48.042;11.192;2023-06-04T00:57:45;4.72;;;3.35;;
36827;SDS011;22766;48.042;11.192;2023-06-04T01:00:11;6.75;;;3.28;;
36827;SDS011;22766;48.042;11.192;2023-06-04T01:02:39;5.63;;;2.85;;
36827;SDS011;22766;48.042;11.192;2023-06-04T01:05:11;6.07;;;3.78;;
36827;SDS011;22766;48.042;11.192;2023-06-04T01:07:44;6.50;;;3.65;;
36827;SDS011;22766;48.042;11.192;2023-06-04T01:10:13;5.60;;;2.83;;
36827;SDS011;22766;48.042;11.192;2023-06-04T01:12:41;5.63;;;3.20;;
36827;SDS011;22766;48.042;11.192;2023-06-04T01:15:09;5.75;;;2.63;;
36827;SDS011;22766;48.042;11.192;2023-06-04T01:17:39;7.28;;;3.10;;
36827;SDS011;22766;48.042;11.192;2023-06-04T01:20:16;5.57;;;2.97;;
36827;SDS011;22766;48.042;11.192;2023-06-04T01:25:21;4.97;;;3.05;;
36827;SDS011;22766;48.042;11.192;2023-06-04T01:27:54;7.22;;;3.38;;
36827;SDS011;22766;48.042;11.192;2023-06-04T01:30:24;9.70;;;3.53;;
36827;SDS011;22766;48.042;11.192;2023-06-04T01:32:56;5.55;;;2.63;;
36827;SDS011;22766;48.042;11.192;2023-06-04T01:35:23;9.27;;;2.67;;
36827;SDS011;22766;48.042;11.192;2023-06-04T01:37:54;5.85;;;3.22;;
36827;SDS011;22766;48.042;11.192;2023-06-04T01:40:22;4.55;;;2.97;;
36827;SDS011;22766;48.042;11.192;2023-06-04T01:42:50;4.55;;;3.15;;
36827;SDS011;22766;48.042;11.192;2023-06-04T01:45:17;8.02;;;3.97;;
36827;SDS011;22766;48.042;11.192;2023-06-04T01:47:44;5.25;;;3.20;;
36827;SDS011;22766;48.042;11.192;2023-06-04T01:50:11;4.93;;;3.13;;
36827;SDS011;22766;48.042;11.192;2023-06-04T01:52:40;5.43;;;3.22;;
36827;SDS011;22766;48.042;11.192;2023-06-04T01:55:08;6.05;;;3.08;;
36827;SDS011;22766;48.042;11.192;2023-06-04T01:57:38;5.88;;;2.70;;
36827;SDS011;22766;48.042;11.192;2023-06-04T02:00:06;5.38;;;3.55;;
36827;SDS011;22766;48.042;11.192;2023-06-04T02:02:38;5.75;;;3.05;;
36827;SDS011;22766;48.042;11.192;2023-06-04T02:05:08;4.72;;;2.97;;
36827;SDS011;22766;48.042;11.192;2023-06-04T02:07:36;6.10;;;3.38;;
36827;SDS011;22766;48.042;11.192;2023-06-04T02:10:06;5.75;;;3.30;;
36827;SDS011;22766;48.042;11.192;2023-06-04T02:12:35;6.80;;;3.30;;
36827;SDS011;22766;48.042;11.192;2023-06-04T02:15:02;7.28;;;3.15;;
36827;SDS011;22766;48.042;11.192;2023-06-04T02:17:30;5.28;;;3.47;;
36827;SDS011;22766;48.042;11.192;2023-06-04T02:19:58;5.45;;;2.80;;
36827;SDS011;22766;48.042;11.192;2023-06-04T02:22:25;6.10;;;2.80;;
36827;SDS011;22766;48.042;11.192;2023-06-04T02:24:52;5.45;;;2.92;;
36827;SDS011;22766;48.042;11.192;2023-06-04T02:27:19;6.05;;;3.38;;
36827;SDS011;22766;48.042;11.192;2023-06-04T02:29:46;5.32;;;3.00;;
36827;SDS011;22766;48.042;11.192;2023-06-04T02:32:13;5.45;;;3.13;;
36827;SDS011;22766;48.042;11.192;2023-06-04T02:34:40;5.53;;;3.22;;
36827;SDS011;22766;48.042;11.192;2023-06-04T02:37:06;9.57;;;2.85;;
36827;SDS011;22766;48.042;11.192;2023-06-04T02:39:33;6.97;;;3.70;;
36827;SDS011;22766;48.042;11.192;2023-06-04T02:42:00;5.90;;;2.80;;
36827;SDS011;22766;48.042;11.192;2023-06-04T02:44:26;5.47;;;3.17;;
36827;SDS011;22766;48.042;11.192;2023-06-04T02:46:56;7.00;;;3.22;;
36827;SDS011;22766;48.042;11.192;2023-06-04T02:49:23;5.65;;;2.92;;
36827;SDS011;22766;48.042;11.192;2023-06-04T02:51:50;5.20;;;2.92;;
36827;SDS011;22766;48.042;11.192;2023-06-04T02:54:17;7.30;;;3.15;;
36827;SDS011;22766;48.042;11.192;2023-06-04T02:56:43;8.90;;;3.42;;
36827;SDS011;22766;48.042;11.192;2023-06-04T02:59:10;6.45;;;3.38;;
36827;SDS011;22766;48.042;11.192;2023-06-04T03:01:40;5.65;;;3.58;;
36827;SDS011;22766;48.042;11.192;2023-06-04T03:04:07;5.95;;;3.20;;
36827;SDS011;22766;48.042;11.192;2023-06-04T03:06:36;6.65;;;3.35;;
36827;SDS011;22766;48.042;11.192;2023-06-04T03:09:07;6.05;;;3.40;;
36827;SDS011;22766;48.042;11.192;2023-06-04T03:11:34;4.28;;;2.78;;
36827;SDS011;22766;48.042;11.192;2023-06-04T03:14:01;6.95;;;3.15;;
36827;SDS011;22766;48.042;11.192;2023-06-04T03:16:28;6.05;;;3.35;;
36827;SDS011;22766;48.042;11.192;2023-06-04T03:18:55;5.53;;;3.60;;
36827;SDS011;22766;48.042;11.192;2023-06-04T03:21:23;6.47;;;3.67;;
36827;SDS011;22766;48.042;11.192;2023-06-04T03:23:51;7.97;;;3.50;;
36827;SDS011;22766;48.042;11.192;2023-06-04T03:26:18;7.38;;;3.70;;
36827;SDS011;22766;48.042;11.192;2023-06-04T03:28:46;8.93;;;3.80;;
36827;SDS011;22766;48.042;11.192;2023-06-04T03:31:16;8.70;;;4.00;;
36827;SDS011;22766;48.042;11.192;2023-06-04T03:33:43;5.55;;;3.65;;
36827;SDS011;22766;48.042;11.192;2023-06-04T03:36:10;6.38;;;3.92;;
36827;SDS011;22766;48.042;11.192;2023-06-04T03:38:38;7.32;;;3.78;;
36827;SDS011;22766;48.042;11.192;2023-06-04T03:41:05;6.38;;;3.63;;
36827;SDS011;22766;48.042;11.192;2023-06-04T03:43:32;6.88;;;3.90;;
36827;SDS011;22766;48.042;11.192;2023-06-04T03:46:02;6.18;;;4.05;;
36827;SDS011;22766;48.042;11.192;2023-06-04T03:48:29;6.68;;;4.13;;
36827;SDS011;22766;48.042;11.192;2023-06-04T03:50:56;4.65;;;3.10;;
36827;SDS011;22766;48.042;11.192;2023-06-04T03:53:23;6.32;;;3.45;;
36827;SDS011;22766;48.042;11.192;2023-06-04T03:55:49;6.35;;;4.07;;
36827;SDS011;22766;48.042;11.192;2023-06-04T03:58:16;6.45;;;4.00;;
36827;SDS011;22766;48.042;11.192;2023-06-04T04:00:47;7.23;;;4.03;;
36827;SDS011;22766;48.042;11.192;2023-06-04T04:03:14;5.13;;;3.65;;
36827;SDS011;22766;48.042;11.192;2023-06-04T04:05:43;6.68;;;3.40;;
36827;SDS011;22766;48.042;11.192;2023-06-04T04:08:10;5.47;;;3.85;;
36827;SDS011;22766;48.042;11.192;2023-06-04T04:10:36;5.20;;;3.25;;
36827;SDS011;22766;48.042;11.192;2023-06-04T04:13:04;7.57;;;3.78;;
36827;SDS011;22766;48.042;11.192;2023-06-04T04:15:34;7.15;;;3.47;;
36827;SDS011;22766;48.042;11.192;2023-06-04T04:18:02;4.55;;;2.95;;
36827;SDS011;22766;48.042;11.192;2023-06-04T04:20:30;6.22;;;3.38;;
36827;SDS011;22766;48.042;11.192;2023-06-04T04:23:01;6.40;;;3.33;;
36827;SDS011;22766;48.042;11.192;2023-06-04T04:25:29;6.35;;;3.22;;
36827;SDS011;22766;48.042;11.192;2023-06-04T04:28:00;4.15;;;2.95;;
36827;SDS011;22766;48.042;11.192;2023-06-04T04:30:29;6.00;;;3.40;;
36827;SDS011;22766;48.042;11.192;2023-06-04T04:32:55;6.55;;;3.05;;
36827;SDS011;22766;48.042;11.192;2023-06-04T04:35:32;4.13;;;3.00;;
36827;SDS011;22766;48.042;11.192;2023-06-04T04:38:02;5.00;;;3.35;;
36827;SDS011;22766;48.042;11.192;2023-06-04T04:40:39;6.07;;;3.47;;
36827;SDS011;22766;48.042;11.192;2023-06-04T04:43:08;4.65;;;3.20;;
36827;SDS011;22766;48.042;11.192;2023-06-04T04:45:35;4.82;;;3.15;;
36827;SDS011;22766;48.042;11.192;2023-06-04T04:48:04;6.07;;;3.05;;
36827;SDS011;22766;48.042;11.192;2023-06-04T04:50:31;6.03;;;3.15;;
36827;SDS011;22766;48.042;11.192;2023-06-04T04:52:59;6.90;;;3.75;;
36827;SDS011;22766;48.042;11.192;2023-06-04T04:55:26;5.07;;;3.15;;
36827;SDS011;22766;48.042;11.192;2023-06-04T04:57:53;5.80;;;3.17;;
36827;SDS011;22766;48.042;11.192;2023-06-04T05:00:22;7.80;;;3.53;;
36827;SDS011;22766;48.042;11.192;2023-06-04T05:02:52;6.60;;;3.28;;
36827;SDS011;22766;48.042;11.192;2023-06-04T05:05:19;7.10;;;3.75;;
36827;SDS011;22766;48.042;11.192;2023-06-04T05:07:47;6.28;;;3.17;;
36827;SDS011;22766;48.042;11.192;2023-06-04T05:10:15;5.95;;;3.25;;
36827;SDS011;22766;48.042;11.192;2023-06-04T05:15:45;6.10;;;3.30;;
36827;SDS011;22766;48.042;11.192;2023-06-04T05:18:17;3.50;;;2.25;;
36827;SDS011;22766;48.042;11.192;2023-06-04T05:20:47;5.45;;;2.90;;
36827;SDS011;22766;48.042;11.192;2023-06-04T05:23:14;2.83;;;2.13;;
36827;SDS011;22766;48.042;11.192;2023-06-04T05:25:43;7.03;;;2.80;;
36827;SDS011;22766;48.042;11.192;2023-06-04T05:28:11;6.30;;;2.28;;
36827;SDS011;22766;48.042;11.192;2023-06-04T05:30:39;6.20;;;2.22;;
36827;SDS011;22766;48.042;11.192;2023-06-04T05:33:09;3.92;;;2.00;;
36827;SDS011;22766;48.042;11.192;2023-06-04T05:35:50;4.55;;;2.28;;
36827;SDS011;22766;48.042;11.192;2023-06-04T05:38:19;4.07;;;2.00;;
36827;SDS011;22766;48.042;11.192;2023-06-04T05:40:46;3.38;;;2.10;;
36827;SDS011;22766;48.042;11.192;2023-06-04T05:43:14;4.20;;;1.85;;
36827;SDS011;22766;48.042;11.192;2023-06-04T05:45:41;3.58;;;1.75;;
36827;SDS011;22766;48.042;11.192;2023-06-04T05:48:08;4.93;;;2.17;;
36827;SDS011;22766;48.042;11.192;2023-06-04T05:50:35;7.53;;;2.20;;
36827;SDS011;22766;48.042;11.192;2023-06-04T05:53:02;5.40;;;2.00;;
36827;SDS011;22766;48.042;11.192;2023-06-04T05:55:28;4.97;;;2.08;;
36827;SDS011;22766;48.042;11.192;2023-06-04T05:57:56;4.93;;;1.90;;
36827;SDS011;22766;48.042;11.192;2023-06-04T06:00:26;3.15;;;1.50;;
36827;SDS011;22766;48.042;11.192;2023-06-04T06:02:53;3.72;;;2.17;;
36827;SDS011;22766;48.042;11.192;2023-06-04T06:05:39;3.42;;;2.00;;
36827;SDS011;22766;48.042;11.192;2023-06-04T06:08:06;2.90;;;1.85;;
36827;SDS011;22766;48.042;11.192;2023-06-04T06:10:33;3.05;;;1.63;;
36827;SDS011;22766;48.042;11.192;2023-06-04T06:13:00;6.15;;;2.30;;
36827;SDS011;22766;48.042;11.192;2023-06-04T06:15:28;2.97;;;1.48;;
36827;SDS011;22766;48.042;11.192;2023-06-04T06:17:55;3.10;;;2.03;;
36827;SDS011;22766;48.042;11.192;2023-06-04T06:20:22;3.97;;;1.77;;
36827;SDS011;22766;48.042;11.192;2023-06-04T06:22:50;2.55;;;1.48;;
36827;SDS011;22766;48.042;11.192;2023-06-04T06:25:19;5.22;;;1.77;;
36827;SDS011;22766;48.042;11.192;2023-06-04T06:27:53;2.88;;;1.48;;
36827;SDS011;22766;48.042;11.192;2023-06-04T06:30:21;3.53;;;2.15;;
36827;SDS011;22766;48.042;11.192;2023-06-04T06:32:48;3.03;;;1.88;;
36827;SDS011;22766;48.042;11.192;2023-06-04T06:35:18;2.05;;;1.27;;
36827;SDS011;22766;48.042;11.192;2023-06-04T06:37:44;4.53;;;2.00;;
36827;SDS011;22766;48.042;11.192;2023-06-04T06:40:11;4.03;;;1.70;;
36827;SDS011;22766;48.042;11.192;2023-06-04T06:42:38;4.30;;;1.95;;
36827;SDS011;22766;48.042;11.192;2023-06-04T06:45:05;9.85;;;2.42;;
36827;SDS011;22766;48.042;11.192;2023-06-04T06:47:32;3.35;;;1.90;;
36827;SDS011;22766;48.042;11.192;2023-06-04T06:49:59;3.92;;;1.85;;
36827;SDS011;22766;48.042;11.192;2023-06-04T06:52:26;3.28;;;1.92;;
36827;SDS011;22766;48.042;11.192;2023-06-04T06:54:52;6.40;;;2.08;;
36827;SDS011;22766;48.042;11.192;2023-06-04T06:57:19;4.45;;;1.95;;
36827;SDS011;22766;48.042;11.192;2023-06-04T06:59:46;3.90;;;2.22;;
36827;SDS011;22766;48.042;11.192;2023-06-04T07:02:13;5.55;;;2.47;;
36827;SDS011;22766;48.042;11.192;2023-06-04T07:04:40;3.28;;;1.98;;
36827;SDS011;22766;48.042;11.192;2023-06-04T07:07:07;5.65;;;2.20;;
36827;SDS011;22766;48.042;11.192;2023-06-04T07:09:33;4.53;;;2.15;;
36827;SDS011;22766;48.042;11.192;2023-06-04T07:12:00;4.95;;;2.38;;
36827;SDS011;22766;48.042;11.192;2023-06-04T07:14:27;3.63;;;2.15;;
36827;SDS011;22766;48.042;11.192;2023-06-04T07:16:54;5.10;;;2.13;;
36827;SDS011;22766;48.042;11.192;2023-06-04T07:19:20;3.63;;;2.35;;
36827;SDS011;22766;48.042;11.192;2023-06-04T07:21:47;3.72;;;2.28;;
36827;SDS011;22766;48.042;11.192;2023-06-04T07:24:14;4.65;;;2.22;;
36827;SDS011;22766;48.042;11.192;2023-06-04T07:26:41;4.05;;;2.30;;
36827;SDS011;22766;48.042;11.192;2023-06-04T07:29:07;5.38;;;2.13;;
36827;SDS011;22766;48.042;11.192;2023-06-04T07:31:34;4.03;;;2.10;;
36827;SDS011;22766;48.042;11.192;2023-06-04T07:34:01;3.35;;;2.30;;
36827;SDS011;22766;48.042;11.192;2023-06-04T07:36:28;6.72;;;2.47;;
36827;SDS011;22766;48.042;11.192;2023-06-04T07:38:55;3.75;;;1.95;;
36827;SDS011;22766;48.042;11.192;2023-06-04T07:41:22;6.40;;;3.20;;
36827;SDS011;22766;48.042;11.192;2023-06-04T07:43:48;7.22;;;2.17;;
36827;SDS011;22766;48.042;11.192;2023-06-04T07:46:15;6.75;;;2.60;;
36827;SDS011;22766;48.042;11.192;2023-06-04T07:48:45;3.15;;;1.65;;
36827;SDS011;22766;48.042;11.192;2023-06-04T07:51:12;3.53;;;2.22;;
36827;SDS011;22766;48.042;11.192;2023-06-04T07:53:40;4.75;;;1.92;;
36827;SDS011;22766;48.042;11.192;2023-06-04T07:56:07;4.00;;;2.00;;
36827;SDS011;22766;48.042;11.192;2023-06-04T07:58:33;3.08;;;2.00;;
36827;SDS011;22766;48.042;11.192;2023-06-04T08:01:00;5.80;;;2.45;;
36827;SDS011;22766;48.042;11.192;2023-06-04T08:03:27;3.60;;;2.00;;
36827;SDS011;22766;48.042;11.192;2023-06-04T08:05:54;4.95;;;2.13;;
36827;SDS011;22766;48.042;11.192;2023-06-04T08:08:22;5.13;;;1.95;;
36827;SDS011;22766;48.042;11.192;2023-06-04T08:10:49;2.90;;;1.73;;
36827;SDS011;22766;48.042;11.192;2023-06-04T08:13:16;4.35;;;2.22;;
36827;SDS011;22766;48.042;11.192;2023-06-04T08:15:43;13.27;;;2.38;;
36827;SDS011;22766;48.042;11.192;2023-06-04T08:18:10;3.28;;;1.75;;
36827;SDS011;22766;48.042;11.192;2023-06-04T08:20:36;2.88;;;2.00;;
36827;SDS011;22766;48.042;11.192;2023-06-04T08:23:03;8.30;;;1.85;;
36827;SDS011;22766;48.042;11.192;2023-06-04T08:25:30;2.75;;;1.50;;
36827;SDS011;22766;48.042;11.192;2023-06-04T08:27:57;4.20;;;1.80;;
36827;SDS011;22766;48.042;11.192;2023-06-04T08:30:24;4.78;;;1.95;;
36827;SDS011;22766;48.042;11.192;2023-06-04T08:32:53;3.92;;;1.98;;
36827;SDS011;22766;48.042;11.192;2023-06-04T08:35:20;3.95;;;1.70;;
36827;SDS011;22766;48.042;11.192;2023-06-04T08:37:47;3.55;;;1.58;;
36827;SDS011;22766;48.042;11.192;2023-06-04T08:40:14;1.92;;;1.20;;
36827;SDS011;22766;48.042;11.192;2023-06-04T08:42:41;3.67;;;1.77;;
36827;SDS011;22766;48.042;11.192;2023-06-04T08:45:11;2.47;;;1.55;;
36827;SDS011;22766;48.042;11.192;2023-06-04T08:47:40;3.10;;;1.60;;
36827;SDS011;22766;48.042;11.192;2023-06-04T08:50:11;5.18;;;1.75;;
36827;SDS011;22766;48.042;11.192;2023-06-04T08:52:38;4.75;;;1.48;;
36827;SDS011;22766;48.042;11.192;2023-06-04T08:55:08;5.50;;;1.38;;
36827;SDS011;22766;48.042;11.192;2023-06-04T08:57:38;3.30;;;1.75;;
36827;SDS011;22766;48.042;11.192;2023-06-04T09:00:06;4.93;;;1.45;;
36827;SDS011;22766;48.042;11.192;2023-06-04T09:02:37;2.67;;;1.48;;
36827;SDS011;22766;48.042;11.192;2023-06-04T09:05:05;3.05;;;1.50;;
36827;SDS011;22766;48.042;11.192;2023-06-04T09:10:05;2.55;;;1.58;;
36827;SDS011;22766;48.042;11.192;2023-06-04T09:12:41;5.80;;;2.15;;
36827;SDS011;22766;48.042;11.192;2023-06-04T09:15:10;3.65;;;1.83;;
36827;SDS011;22766;48.042;11.192;2023-06-04T09:17:38;3.35;;;1.42;;
36827;SDS011;22766;48.042;11.192;2023-06-04T09:20:05;4.32;;;1.60;;
36827;SDS011;22766;48.042;11.192;2023-06-04T09:22:35;4.35;;;1.90;;
36827;SDS011;22766;48.042;11.192;2023-06-04T09:25:04;3.83;;;1.50;;
36827;SDS011;22766;48.042;11.192;2023-06-04T09:27:39;5.05;;;1.77;;
36827;SDS011;22766;48.042;11.192;2023-06-04T09:30:06;4.55;;;1.67;;
36827;SDS011;22766;48.042;11.192;2023-06-04T09:32:35;4.03;;;2.00;;
36827;SDS011;22766;48.042;11.192;2023-06-04T09:35:13;3.22;;;1.95;;
36827;SDS011;22766;48.042;11.192;2023-06-04T09:37:41;3.88;;;1.90;;
36827;SDS011;22766;48.042;11.192;2023-06-04T09:40:09;4.55;;;2.30;;
36827;SDS011;22766;48.042;11.192;2023-06-04T09:42:43;4.97;;;1.80;;
36827;SDS011;22766;48.042;11.192;2023-06-04T09:45:10;3.97;;;1.60;;
36827;SDS011;22766;48.042;11.192;2023-06-04T09:47:39;2.58;;;1.40;;
36827;SDS011;22766;48.042;11.192;2023-06-04T09:50:10;3.80;;;1.85;;
36827;SDS011;22766;48.042;11.192;2023-06-04T09:52:38;3.33;;;1.80;;
36827;SDS011;22766;48.042;11.192;2023-06-04T09:55:16;4.50;;;1.67;;
36827;SDS011;22766;48.042;11.192;2023-06-04T09:57:46;4.35;;;1.88;;
36827;SDS011;22766;48.042;11.192;2023-06-04T10:00:18;4.03;;;1.75;;
36827;SDS011;22766;48.042;11.192;2023-06-04T10:02:48;5.40;;;2.05;;
36827;SDS011;22766;48.042;11.192;2023-06-04T10:05:15;4.47;;;1.95;;
36827;SDS011;22766;48.042;11.192;2023-06-04T10:07:43;3.10;;;1.90;;
36827;SDS011;22766;48.042;11.192;2023-06-04T10:10:14;3.67;;;1.70;;
36827;SDS011;22766;48.042;11.192;2023-06-04T10:12:43;5.63;;;1.90;;
36827;SDS011;22766;48.042;11.192;2023-06-04T10:15:12;2.92;;;2.03;;
36827;SDS011;22766;48.042;11.192;2023-06-04T10:17:39;4.40;;;2.03;;
36827;SDS011;22766;48.042;11.192;2023-06-04T10:20:07;4.80;;;2.17;;
36827;SDS011;22766;48.042;11.192;2023-06-04T10:22:35;4.57;;;1.95;;
36827;SDS011;22766;48.042;11.192;2023-06-04T10:25:03;3.90;;;2.10;;
36827;SDS011;22766;48.042;11.192;2023-06-04T10:27:31;4.93;;;2.10;;
36827;SDS011;22766;48.042;11.192;2023-06-04T10:29:58;5.03;;;1.80;;
36827;SDS011;22766;48.042;11.192;2023-06-04T10:32:26;4.65;;;2.20;;
36827;SDS011;22766;48.042;11.192;2023-06-04T10:37:27;3.97;;;2.03;;
36827;SDS011;22766;48.042;11.192;2023-06-04T10:39:56;4.25;;;2.28;;
36827;SDS011;22766;48.042;11.192;2023-06-04T10:42:23;5.22;;;2.10;;
36827;SDS011;22766;48.042;11.192;2023-06-04T10:44:52;4.07;;;2.15;;
36827;SDS011;22766;48.042;11.192;2023-06-04T10:47:27;3.88;;;1.77;;
36827;SDS011;22766;48.042;11.192;2023-06-04T10:50:13;4.45;;;2.00;;
36827;SDS011;22766;48.042;11.192;2023-06-04T10:52:52;4.68;;;1.90;;
36827;SDS011;22766;48.042;11.192;2023-06-04T10:55:20;3.15;;;1.77;;
36827;SDS011;22766;48.042;11.192;2023-06-04T10:58:31;3.03;;;2.00;;
36827;SDS011;22766;48.042;11.192;2023-06-04T11:03:12;3.85;;;2.03;;
36827;SDS011;22766;48.042;11.192;2023-06-04T11:05:40;4.22;;;2.05;;
36827;SDS011;22766;48.042;11.192;2023-06-04T11:08:14;3.67;;;2.17;;
36827;SDS011;22766;48.042;11.192;2023-06-04T11:13:09;4.07;;;1.65;;
36827;SDS011;22766;48.042;11.192;2023-06-04T11:15:40;6.07;;;2.05;;
36827;SDS011;22766;48.042;11.192;2023-06-04T11:18:12;2.70;;;1.75;;
36827;SDS011;22766;48.042;11.192;2023-06-04T11:20:40;3.97;;;2.30;;
36827;SDS011;22766;48.042;11.192;2023-06-04T11:23:11;5.93;;;1.77;;
36827;SDS011;22766;48.042;11.192;2023-06-04T11:25:39;3.78;;;2.17;;
36827;SDS011;22766;48.042;11.192;2023-06-04T11:28:07;3.78;;;1.80;;
36827;SDS011;22766;48.042;11.192;2023-06-04T11:30:33;4.35;;;2.20;;
36827;SDS011;22766;48.042;11.192;2023-06-04T11:33:01;7.18;;;1.95;;
36827;SDS011;22766;48.042;11.192;2023-06-04T11:35:30;3.72;;;2.00;;
36827;SDS011;22766;48.042;11.192;2023-06-04T11:37:57;5.45;;;1.75;;
36827;SDS011;22766;48.042;11.192;2023-06-04T11:40:25;3.10;;;2.30;;
36827;SDS011;22766;48.042;11.192;2023-06-04T11:42:53;9.25;;;2.15;;
36827;SDS011;22766;48.042;11.192;2023-06-04T11:45:21;3.63;;;1.80;;
36827;SDS011;22766;48.042;11.192;2023-06-04T11:47:52;4.03;;;1.70;;
36827;SDS011;22766;48.042;11.192;2023-06-04T11:50:22;3.15;;;1.42;;
36827;SDS011;22766;48.042;11.192;2023-06-04T11:52:51;6.63;;;1.92;;
36827;SDS011;22766;48.042;11.192;2023-06-04T11:55:19;3.60;;;1.98;;
36827;SDS011;22766;48.042;11.192;2023-06-04T12:00:17;2.92;;;1.80;;
36827;SDS011;22766;48.042;11.192;2023-06-04T12:05:20;3.83;;;2.00;;
36827;SDS011;22766;48.042;11.192;2023-06-04T12:07:51;2.88;;;1.50;;
36827;SDS011;22766;48.042;11.192;2023-06-04T12:10:19;3.42;;;1.50;;
36827;SDS011;22766;48.042;11.192;2023-06-04T12:12:53;5.65;;;1.60;;
36827;SDS011;22766;48.042;11.192;2023-06-04T12:15:21;3.15;;;1.70;;
36827;SDS011;22766;48.042;11.192;2023-06-04T12:17:52;3.05;;;1.60;;
36827;SDS011;22766;48.042;11.192;2023-06-04T12:20:31;5.68;;;2.00;;
36827;SDS011;22766;48.042;11.192;2023-06-04T12:22:58;3.60;;;1.67;;
36827;SDS011;22766;48.042;11.192;2023-06-04T12:25:26;3.03;;;1.70;;
36827;SDS011;22766;48.042;11.192;2023-06-04T12:27:54;11.13;;;2.00;;
36827;SDS011;22766;48.042;11.192;2023-06-04T12:30:21;3.42;;;1.90;;
36827;SDS011;22766;48.042;11.192;2023-06-04T12:32:49;8.18;;;1.67;;
36827;SDS011;22766;48.042;11.192;2023-06-04T12:35:17;6.18;;;1.98;;
36827;SDS011;22766;48.042;11.192;2023-06-04T12:37:46;4.68;;;1.90;;
36827;SDS011;22766;48.042;11.192;2023-06-04T12:40:13;5.15;;;1.65;;
36827;SDS011;22766;48.042;11.192;2023-06-04T12:42:39;6.32;;;1.50;;
36827;SDS011;22766;48.042;11.192;2023-06-04T12:45:06;4.50;;;1.73;;
36827;SDS011;22766;48.042;11.192;2023-06-04T12:47:35;4.22;;;2.20;;
36827;SDS011;22766;48.042;11.192;2023-06-04T12:50:01;3.63;;;1.60;;
36827;SDS011;22766;48.042;11.192;2023-06-04T12:52:29;4.60;;;1.75;;
36827;SDS011;22766;48.042;11.192;2023-06-04T12:54:56;4.05;;;1.92;;
36827;SDS011;22766;48.042;11.192;2023-06-04T12:57:23;4.63;;;1.77;;
36827;SDS011;22766;48.042;11.192;2023-06-04T12:59:50;3.85;;;1.55;;
36827;SDS011;22766;48.042;11.192;2023-06-04T13:02:16;3.20;;;1.98;;
36827;SDS011;22766;48.042;11.192;2023-06-04T13:04:43;4.93;;;1.80;;
36827;SDS011;22766;48.042;11.192;2023-06-04T13:07:12;5.80;;;2.15;;
36827;SDS011;22766;48.042;11.192;2023-06-04T13:09:39;3.33;;;1.70;;
36827;SDS011;22766;48.042;11.192;2023-06-04T13:12:06;4.55;;;1.92;;
36827;SDS011;22766;48.042;11.192;2023-06-04T13:14:35;4.50;;;2.00;;
36827;SDS011;22766;48.042;11.192;2023-06-04T13:17:02;3.75;;;1.80;;
36827;SDS011;22766;48.042;11.192;2023-06-04T13:19:46;3.78;;;1.80;;
36827;SDS011;22766;48.042;11.192;2023-06-04T13:22:13;5.05;;;1.63;;
36827;SDS011;22766;48.042;11.192;2023-06-04T13:24:39;7.03;;;1.83;;
36827;SDS011;22766;48.042;11.192;2023-06-04T13:27:06;2.65;;;1.83;;
36827;SDS011;22766;48.042;11.192;2023-06-04T13:29:33;2.05;;;1.50;;
36827;SDS011;22766;48.042;11.192;2023-06-04T13:32:01;5.93;;;2.08;;
36827;SDS011;22766;48.042;11.192;2023-06-04T13:34:28;4.03;;;1.83;;
36827;SDS011;22766;48.042;11.192;2023-06-04T13:36:54;3.63;;;2.38;;
36827;SDS011;22766;48.042;11.192;2023-06-04T13:39:22;3.80;;;1.95;;
36827;SDS011;22766;48.042;11.192;2023-06-04T13:41:49;3.40;;;1.77;;
36827;SDS011;22766;48.042;11.192;2023-06-04T13:44:15;3.13;;;1.77;;
36827;SDS011;22766;48.042;11.192;2023-06-04T13:46:42;5.28;;;2.10;;
36827;SDS011;22766;48.042;11.192;2023-06-04T13:49:09;4.63;;;1.90;;
36827;SDS011;22766;48.042;11.192;2023-06-04T13:51:35;4.78;;;1.85;;
36827;SDS011;22766;48.042;11.192;2023-06-04T13:54:02;3.05;;;1.50;;
36827;SDS011;22766;48.042;11.192;2023-06-04T13:56:29;3.88;;;1.77;;
36827;SDS011;22766;48.042;11.192;2023-06-04T13:58:56;5.13;;;1.88;;
36827;SDS011;22766;48.042;11.192;2023-06-04T14:01:23;4.82;;;2.22;;
36827;SDS011;22766;48.042;11.192;2023-06-04T14:03:50;2.88;;;1.60;;
36827;SDS011;22766;48.042;11.192;2023-06-04T14:06:17;4.70;;;2.03;;
36827;SDS011;22766;48.042;11.192;2023-06-04T14:08:44;3.38;;;1.60;;
36827;SDS011;22766;48.042;11.192;2023-06-04T14:11:11;6.53;;;1.83;;
36827;SDS011;22766;48.042;11.192;2023-06-04T14:13:37;6.22;;;2.08;;
36827;SDS011;22766;48.042;11.192;2023-06-04T14:16:05;4.20;;;1.83;;
36827;SDS011;22766;48.042;11.192;2023-06-04T14:18:32;3.67;;;2.13;;
36827;SDS011;22766;48.042;11.192;2023-06-04T14:20:59;3.42;;;1.80;;
36827;SDS011;22766;48.042;11.192;2023-06-04T14:23:25;3.80;;;1.80;;
36827;SDS011;22766;48.042;11.192;2023-06-04T14:25:52;2.47;;;1.80;;
36827;SDS011;22766;48.042;11.192;2023-06-04T14:28:19;4.90;;;2.22;;
36827;SDS011;22766;48.042;11.192;2023-06-04T14:30:47;4.32;;;1.85;;
36827;SDS011;22766;48.042;11.192;2023-06-04T14:33:14;4.38;;;1.95;;
36827;SDS011;22766;48.042;11.192;2023-06-04T14:35:40;4.47;;;1.80;;
36827;SDS011;22766;48.042;11.192;2023-06-04T14:38:13;3.55;;;2.08;;
36827;SDS011;22766;48.042;11.192;2023-06-04T14:40:41;4.93;;;2.13;;
36827;SDS011;22766;48.042;11.192;2023-06-04T14:43:10;3.63;;;1.70;;
36827;SDS011;22766;48.042;11.192;2023-06-04T14:45:37;4.45;;;2.00;;
36827;SDS011;22766;48.042;11.192;2023-06-04T14:48:06;6.53;;;2.13;;
36827;SDS011;22766;48.042;11.192;2023-06-04T14:50:41;3.53;;;1.85;;
36827;SDS011;22766;48.042;11.192;2023-06-04T14:53:09;5.68;;;2.00;;
36827;SDS011;22766;48.042;11.192;2023-06-04T14:55:36;3.42;;;1.63;;
36827;SDS011;22766;48.042;11.192;2023-06-04T14:58:03;4.40;;;2.03;;
36827;SDS011;22766;48.042;11.192;2023-06-04T15:00:31;2.95;;;1.83;;